Flight Track Log - Related Links

Times and Time Zones

All times are in EDT time to prevent confusion due to time zone crossing. See the TRS732 flight status page for this flight to view local times or setup timezone preferences in your user account.

Time Position Orientation Groundspeed Altitude Reporting Facility
EDT Latitude Longitude Course Direction KTS MPH feet Rate Location/Type
Mon 06:58:17 PM 26.6614 -81.7214 340° North 261 300 3,200  Level Miami Center
Mon 06:59:17 PM 26.7300 -81.7289 354° North 279 321 5,500 2,200 Climbing Miami Center
Mon 07:00:17 PM 26.8092 -81.7369 355° North 279 321 7,600 2,050 Climbing Miami Center
Mon 07:01:17 PM 26.8883 -81.7378 359° North 284 327 9,600 1,650 Climbing Miami Center
Mon 07:02:17 PM 26.9739 -81.7414 358° North 291 335 10,900 1,100 Climbing Miami Center
Mon 07:03:00 PM 27.0834 -81.7600 340° North  Level FlightAware
Mon 07:03:17 PM 27.0608 -81.7033 21° North 310 357 11,800  Level Miami Center
Mon 07:04:17 PM 27.1264 -81.6150 50° Northeast 322 371 13,100 1,400 Climbing Miami Center
Mon 07:05:17 PM 27.1961 -81.5244 49° Northeast 345 397 14,600 1,500 Climbing Miami Center
Mon 07:06:17 PM 27.2678 -81.4361 48° Northeast 367 422 16,100 1,500 Climbing Miami Center
Mon 07:07:17 PM 27.3394 -81.3408 50° Northeast 383 441 17,600 1,339 Climbing Miami Center
Mon 07:08:18 PM 27.4069 -81.2569 48° Northeast 396 456 18,800 1,400 Climbing Miami Center
Mon 07:09:17 PM 27.4850 -81.1569 49° Northeast 402 463 20,400 1,563 Climbing Miami Center
Mon 07:10:17 PM 27.5717 -81.0456 49° Northeast 414 476 21,900 1,300 Climbing Miami Center
Mon 07:11:17 PM 27.6456 -80.9497 49° Northeast 431 496 23,000 1,150 Climbing Miami Center
Mon 07:12:17 PM 27.7236 -80.8469 49° Northeast 436 502 24,200 1,150 Climbing Miami Center
Mon 07:13:17 PM 27.8036 -80.7442 49° Northeast 436 502 25,300 1,050 Climbing Miami Center
Mon 07:14:17 PM 27.8900 -80.6344 48° Northeast 441 507 26,300 900 Climbing Miami Center
Mon 07:15:17 PM 27.9719 -80.5267 49° Northeast 447 514 27,100 950 Climbing Miami Center
Mon 07:16:17 PM 28.0583 -80.4167 48° Northeast 458 527 28,200 1,200 Climbing Miami Center
Mon 07:17:17 PM 28.1511 -80.2947 49° Northeast 452 520 29,500 1,150 Climbing Miami Center
Mon 07:18:17 PM 28.2350 -80.1864 49° Northeast 452 520 30,500 750 Climbing Miami Center
Mon 07:19:17 PM 28.3167 -80.0758 50° Northeast 457 526 31,000 250 Climbing Miami Center
Mon 07:20:17 PM 28.3942 -79.9789 48° Northeast 457 526 31,000 -50 Level Miami Center
Mon 07:21:17 PM 28.4736 -79.8700 50° Northeast 449 517 30,900 -50 Descending Miami Center
Mon 07:22:17 PM 28.5553 -79.7611 49° Northeast 449 517 30,900 50 Level Miami Center
Mon 07:23:17 PM 28.6386 -79.6522 49° Northeast 449 517 31,000  Climbing Miami Center
Mon 07:24:17 PM 28.7181 -79.5428 50° Northeast 449 517 30,900 -50 Descending Miami Center
Mon 07:25:17 PM 28.8317 -79.4842 24° Northeast 443 510 30,900  Level Miami Center
Mon 07:26:17 PM 28.9722 -79.4494 12° North 445 512 30,900  Level Miami Center
Mon 07:27:17 PM 29.0958 -79.4144 14° North 450 518 30,900  Level Miami Center
Mon 07:28:18 PM 29.2194 -79.3817 13° North 450 518 30,900  Level Miami Center
Mon 07:29:17 PM 29.3433 -79.3464 14° North 458 527 30,900  Level Miami Center
Mon 07:30:17 PM 29.4689 -79.3133 13° North 452 520 30,900 50 Level Miami Center
Mon 07:31:17 PM 29.5925 -79.2781 14° North 452 520 31,000  Climbing Miami Center
Mon 07:32:17 PM 29.7203 -79.2475 12° North 452 520 30,900 -50 Descending Miami Center
Mon 07:33:17 PM 29.8419 -79.2119 14° North 457 526 30,900  Level Miami Center
Mon 07:35:13 PM 30.0653 -79.1464 14° North 435 501 30,900 34 Level Jacksonville Center
Mon 07:36:12 PM 30.1939 -79.1150 12° North 440 506 31,000 50 Climbing Jacksonville Center
Mon 07:37:12 PM 30.3158 -79.0742 16° North 452 520 31,000  Level Jacksonville Center
Mon 07:38:12 PM 30.4422 -79.0400 13° North 452 520 31,000  Level Jacksonville Center
Mon 07:39:12 PM 30.5619 -79.0039 15° North 452 520 31,000  Level Jacksonville Center
Mon 07:40:13 PM 30.6819 -78.9675 15° North 446 513 31,000  Level Jacksonville Center
Mon 07:41:13 PM 30.8125 -78.9331 13° North 453 521 31,000  Level Jacksonville Center
Mon 07:42:13 PM 30.9325 -78.8967 15° North 448 516 31,000 -50 Level Jacksonville Center
Mon 07:43:13 PM 31.0567 -78.8647 12° North 453 521 30,900  Descending Jacksonville Center
Mon 07:44:13 PM 31.1847 -78.8253 15° North 453 521 31,000 50 Climbing Jacksonville Center
Mon 07:45:12 PM 31.3089 -78.7906 13° North 453 521 31,000  Level Jacksonville Center
Mon 07:46:12 PM 31.4331 -78.7536 14° North 453 521 31,000 -50 Level Jacksonville Center
Mon 07:47:13 PM 31.5569 -78.7164 14° North 453 521 30,900 -50 Descending Jacksonville Center
Mon 07:48:12 PM 31.6833 -78.6814 13° North 451 519 30,900  Level Jacksonville Center
Mon 07:49:13 PM 31.8050 -78.6442 15° North 451 519 30,900 50 Level Jacksonville Center
Mon 07:50:12 PM 31.9333 -78.6064 14° North 451 519 31,000  Climbing Jacksonville Center
Mon 07:51:12 PM 32.0533 -78.5739 13° North 451 519 30,900 -50 Descending Jacksonville Center
Mon 07:52:13 PM 32.1814 -78.5333 15° North 451 519 30,900 50 Level Jacksonville Center
Mon 07:53:13 PM 32.3053 -78.4956 14° North 451 519 31,000 50 Climbing Jacksonville Center
Mon 07:54:12 PM 32.4433 -78.4469 17° North 451 519 31,000 -50 Level Jacksonville Center
Mon 07:55:13 PM 32.5694 -78.4139 12° North 456 525 30,900  Descending Jacksonville Center
Mon 07:56:13 PM 32.6956 -78.3778 14° North 456 525 31,000 31 Climbing Jacksonville Center
Mon 07:58:27 PM 32.9753 -78.2917 14° North 448 516 31,000  Level Washington Center
Mon 07:59:28 PM 33.1014 -78.2558 13° North 453 521 31,000 -49 Level Washington Center
Mon 08:00:29 PM 33.2272 -78.2178 14° North 458 527 30,900  Descending Washington Center
Mon 08:01:27 PM 33.3553 -78.1794 14° North 458 527 31,000 50 Climbing Washington Center
Mon 08:02:28 PM 33.4814 -78.1411 14° North 458 527 31,000 -49 Level Washington Center
Mon 08:03:29 PM 33.6072 -78.1050 13° North 458 527 30,900 -50 Descending Washington Center
Mon 08:04:27 PM 33.7353 -78.0664 14° North 458 527 30,900 51 Level Washington Center
Mon 08:05:27 PM 33.8569 -78.0300 14° North 453 521 31,000 50 Climbing Washington Center
Mon 08:06:28 PM 33.9872 -77.9861 16° North 459 528 31,000  Level Washington Center
Mon 08:07:29 PM 34.1153 -77.9472 14° North 465 535 31,000  Level Washington Center
Mon 08:08:29 PM 34.2392 -77.9081 15° North 460 529 31,000 -50 Level Washington Center
Mon 08:09:28 PM 34.3544 -77.8786 12° North 460 529 30,900  Descending Washington Center
Mon 08:10:29 PM 34.4819 -77.8647 North 460 529 31,000  Climbing Washington Center
Mon 08:11:26 PM 34.6097 -77.8481 North 460 529 30,900  Descending Washington Center
Mon 08:12:27 PM 34.7350 -77.8414 North 460 529 31,000 50 Climbing Washington Center
Mon 08:13:27 PM 34.8658 -77.8678 351° North 435 501 31,000  Level Washington Center
Mon 08:14:28 PM 34.9664 -77.9592 323° Northwest 430 495 31,000  Level Washington Center
Mon 08:15:27 PM 35.0689 -78.0486 324° Northwest 436 502 31,000  Level Washington Center
Mon 08:16:28 PM 35.1692 -78.1406 323° Northwest 446 513 31,000  Level Washington Center
Mon 08:17:28 PM 35.2675 -78.2300 323° Northwest 446 513 31,000  Level Washington Center
Mon 08:18:29 PM 35.3678 -78.3175 325° Northwest 446 513 31,000  Level Washington Center
Mon 08:19:29 PM 35.4881 -78.3394 352° North 423 487 31,000  Level Washington Center
Mon 08:20:28 PM 35.6086 -78.2772 23° Northeast 417 480 31,000  Level Washington Center
Mon 08:21:29 PM 35.7247 -78.2094 25° Northeast 431 496 31,000  Level Washington Center
Mon 08:22:29 PM 35.8431 -78.1414 25° Northeast 444 511 31,000  Level Washington Center
Mon 08:23:27 PM 35.9592 -78.0733 25° Northeast 449 517 31,000  Level Washington Center
Mon 08:24:28 PM 36.0753 -78.0078 25° Northeast 454 522 31,000  Level Washington Center
Mon 08:25:29 PM 36.1894 -77.9417 25° Northeast 454 522 31,000 -50 Level Washington Center
Mon 08:26:27 PM 36.2989 -77.8908 21° North 435 501 30,900 -807 Descending Washington Center
Mon 08:27:28 PM 36.4042 -77.8422 20° North 416 479 29,400 -934 Descending Washington Center
Mon 08:28:29 PM 36.4925 -77.7983 22° Northeast 387 445 29,000 -198 Descending Washington Center
Mon 08:29:29 PM 36.5967 -77.8014 359° North 371 427 29,000  Level Washington Center
Mon 08:30:27 PM 36.6897 -77.8583 334° Northwest 361 415 29,000  Level Washington Center
Mon 08:31:27 PM 36.7844 -77.9208 332° Northwest 366 421 29,000  Level Washington Center
Mon 08:32:28 PM 36.8772 -77.9806 333° Northwest 372 428 29,000  Level Washington Center
Mon 08:33:29 PM 36.9697 -78.0408 333° Northwest 372 428 29,000  Level Washington Center
Mon 08:34:29 PM 37.0622 -78.1036 332° Northwest 377 434 29,000 -462 Level Washington Center
Mon 08:35:26 PM 37.1669 -78.0886 North 365 420 28,100 -508 Descending Washington Center
Mon 08:36:27 PM 37.2358 -77.9814 51° Northeast 324 373 28,000 -295 Descending Washington Center
Mon 08:38:00 PM 37.3046 -77.7506 62° Northeast  Level FlightAware
Mon 08:38:29 PM 37.3431 -77.7131 62° Northeast 399 459 27,200  Level Washington Center
Mon 08:39:27 PM 37.3956 -77.5839 63° Northeast 409 471 26,200 -1,017 Descending Washington Center
Mon 08:40:27 PM 37.4497 -77.4544 62° Northeast 409 471 25,200 -992 Descending Washington Center
Mon 08:41:28 PM 37.5200 -77.3461 51° Northeast 404 465 24,200 -976 Descending Washington Center
Mon 08:42:30 PM 37.6231 -77.2961 21° North 378 435 23,200 -605 Descending Washington Center
Mon 08:43:27 PM 37.7256 -77.2722 10° North 363 418 23,000 -101 Descending Washington Center
Mon 08:44:29 PM 37.8281 -77.2533 North 363 418 23,000  Level Washington Center
Mon 08:45:27 PM 37.9325 -77.2319 North 373 429 23,000 -254 Level Washington Center
Mon 08:46:27 PM 38.0456 -77.2133 North 373 429 22,500 -1,655 Descending Washington Center
Mon 08:48:21 PM 38.2500 -77.1667 10° North 363 418 18,200 -2,143 Descending Potomac TRACON
Mon 08:49:29 PM 38.3444 -77.1483 North 358 412 16,000 -1,952 Descending Washington Center
Mon 08:50:27 PM 38.4267 -77.0892 29° Northeast 328 377 14,100 -1,765 Descending Washington Center
Mon 08:51:28 PM 38.4944 -77.0028 45° Northeast 328 377 12,500 -1,377 Descending Washington Center
Mon 08:52:29 PM 38.5600 -76.9219 44° Northeast 328 377 11,300 -1,109 Descending Washington Center
Mon 08:53:27 PM 38.6233 -76.8458 43° Northeast 314 361 10,300 -966 Descending Washington Center
Mon 08:54:27 PM 38.6825 -76.7725 44° Northeast 302 348 9,400 -992 Descending Washington Center
Mon 08:55:28 PM 38.7311 -76.6881 54° Northeast 297 342 8,300 -1,230 Descending Washington Center
Mon 08:56:29 PM 38.7667 -76.5833 66° East 298 343 6,900 -1,488 Descending Potomac TRACON
Mon 08:57:29 PM 38.8333 -76.5500 21° North 282 325 5,300 -1,450 Descending Potomac TRACON
Mon 08:58:29 PM 38.9167 -76.5333 North 269 310 4,000 -1,000 Descending Potomac TRACON
Mon 08:59:29 PM 38.9833 -76.5333 360° North 212 244 3,300 -500 Descending Potomac TRACON
Mon 09:00:29 PM 39.0333 -76.5500 345° North 201 231 3,000 -500 Descending Potomac TRACON
Mon 09:01:29 PM 39.0667 -76.5833 322° Northwest 174 200 2,300 -800 Descending Potomac TRACON
Mon 09:02:29 PM 39.1167 -76.6167 333° Northwest 158 182 1,400 -800 Descending Potomac TRACON
Mon 09:03:29 PM 39.1500 -76.6500 322° Northwest 137 158 700 -700 Descending Potomac TRACON
Mon 09:05:00 PM 39.1667 -76.6667 339° North  Level FlightAware
Mon 09:12:00 PM 39.1754 -76.6683 339° North  Level Estimated
Mon 09:13:00 PM 39.1754 -76.6683 339° North  Level Estimated
Mon 09:14:00 PM 39.1754 -76.6683 339° North  Level Estimated
Mon 09:15:00 PM 39.1754 -76.6683 339° North  Level Estimated
Mon 09:16:00 PM 39.1754 -76.6683 339° North  Level Estimated
Mon 09:17:00 PM 39.1754 -76.6683 339° North  Level Estimated

Login

Don't have an account? Register now (free) for customized features, flight alerts, and more!